EW8791 Weather Reports


Display with metric or nautical units.
time (UTC)temp
F
wind
direction
speed
MPH
gust
MPH
rain 1hr
in
rain 24hr
in
rain mn
in
humidity
%
barometer
mb
20190921090112 50 195 0.0 0.0 0.00 0.00 0.00 96 1021.5
20190921084616 50 196 0.0 0.0 0.00 0.00 0.00 95 1021.3
20190921083054 50 196 0.0 0.0 0.00 0.00 0.00 95 1021.1
20190921081527 51 196 0.0 0.0 0.00 0.00 0.00 95 1021.0
20190921080045 51 196 0.0 0.0 0.00 0.00 0.00 95 1021.0
20190921074538 51 196 0.0 0.0 0.00 0.00 0.00 95 1021.1
20190921073027 52 196 0.0 0.0 0.00 0.00 0.00 95 1021.1
20190921071529 52 196 0.0 0.0 0.00 0.00 0.00 94 1021.2
20190921070029 52 195 0.0 0.0 0.00 0.00 0.00 94 1021.2
20190921064553 53 196 0.0 0.0 0.00 0.00 0.00 93 1021.1
20190921063037 53 196 0.0 0.0 0.00 0.00 0.00 93 1021.2
20190921061539 54 195 0.0 0.0 0.00 0.00 0.00 92 1021.3
20190921060017 54 195 0.0 0.0 0.00 0.00 0.00 92 1021.1
20190921054541 54 196 0.0 0.0 0.00 0.00 0.00 94 1021.2
20190921053011 54 195 0.0 0.0 0.00 0.00 0.00 95 1020.9
20190921051520 54 196 0.0 0.0 0.00 0.00 0.00 95 1021.0
20190921050008 54 196 0.0 0.0 0.00 0.00 0.00 95 1020.9
20190921044505 53 195 0.0 0.0 0.00 0.00 0.00 95 1020.8
20190921043007 53 196 0.0 0.0 0.00 0.00 0.00 95 1020.6
20190921041648 53 196 0.0 0.0 0.00 0.00 0.00 94 1020.5
20190921040124 54 196 0.0 0.0 0.00 0.00 0.00 94 1020.4
20190921034701 54 196 0.0 0.0 0.00 0.00 0.00 94 1020.3
20190921033136 54 196 0.0 0.0 0.00 0.00 0.00 94 1020.4
20190921031612 54 195 0.0 0.0 0.00 0.00 0.00 93 1020.2
20190921030205 55 195 0.0 0.0 0.00 0.00 0.00 93 1020.5
20190921024703 55 195 0.0 0.0 0.00 0.00 0.00 93 1020.6
20190921023139 55 195 0.0 0.0 0.00 0.00 0.00 92 1020.7
20190921021648 56 195 0.0 0.0 0.00 0.00 0.00 92 1020.7
20190921020150 56 196 0.0 0.0 0.00 0.00 0.00 92 1020.6
20190921014619 56 196 0.0 0.0 0.00 0.00 0.00 91 1020.8
20190921013202 57 196 0.0 0.0 0.00 0.00 0.00 91 1020.7
20190921011620 58 196 0.0 0.0 0.00 0.00 0.00 91 1020.7
20190921010146 58 195 0.0 0.0 0.00 0.00 0.00 91 1020.5
20190921004701 58 196 0.0 0.0 0.00 0.00 0.00 90 1020.4
20190921003157 59 195 0.0 0.0 0.00 0.00 0.00 89 1020.3
20190921001641 59 196 0.0 0.0 0.00 0.00 0.00 88 1020.4
20190921000124 60 196 0.0 0.0 0.00 0.00 0.00 87 1020.4
20190920234713 61 196 0.0 0.0 0.00 0.00 0.00 86 1020.0
20190920233111 62 196 0.0 0.0 0.00 0.00 0.00 84 1019.9
20190920231642 63 196 0.0 0.0 0.00 0.00 0.00 83 1019.8
20190920230143 64 196 0.0 0.0 0.00 0.00 0.00 81 1019.8
20190920224636 66 196 0.0 0.0 0.00 0.00 0.00 78 1019.7
20190920223124 68 196 0.0 0.0 0.00 0.00 0.00 73 1019.6
20190920221631 69 196 0.0 0.0 0.00 0.00 0.00 70 1019.6
20190920220118 71 196 0.0 0.0 0.00 0.00 0.00 66 1019.5
20190920214628 73 196 0.0 0.0 0.00 0.00 0.00 61 1019.5
20190920213150 75 196 0.0 0.0 0.00 0.00 0.00 57 1019.4
20190920211631 77 198 0.0 0.0 0.00 0.00 0.00 50 1019.3
20190920210108 79 119 0.0 1.0 0.00 0.00 0.00 43 1019.3
20190920204642 80 76 0.0 0.0 0.00 0.00 0.00 44 1019.3
20190920203126 80 65 0.0 1.0 0.00 0.00 0.00 41 1019.4
20190920201633 81 201 0.0 0.0 0.00 0.00 0.00 42 1019.5
20190920200050 80 227 0.0 2.0 0.00 0.00 0.00 41 1019.5
20190920194631 79 225 0.0 4.0 0.00 0.00 0.00 42 1019.5
20190920193046 79 236 0.0 2.0 0.00 0.00 0.00 42 1019.6
20190920191615 79 208 0.0 2.0 0.00 0.00 0.00 44 1019.7
20190920190031 79 171 0.0 1.0 0.00 0.00 0.00 43 1019.8
20190920184541 79 141 1.0 3.0 0.00 0.00 0.00 40 1020.0
20190920183102 78 51 0.0 2.0 0.00 0.00 0.00 43 1020.1
20190920181531 78 123 0.0 2.0 0.00 0.00 0.00 39 1020.3
20190920180028 79 242 0.0 3.0 0.00 0.00 0.00 39 1020.4
20190920174514 78 244 0.0 3.0 0.00 0.00 0.00 36 1020.5
20190920173028 77 163 0.0 5.0 0.00 0.00 0.00 35 1020.7
20190920171508 77 49 0.0 3.0 0.00 0.00 0.00 37 1020.8
20190920170017 77 50 0.0 5.0 0.00 0.00 0.00 37 1021.0
20190920164654 76 232 0.0 5.0 0.00 0.00 0.00 44 1021.2
20190920163215 75 227 0.0 3.0 0.00 0.00 0.00 43 1021.3
20190920161705 75 336 1.0 4.0 0.00 0.00 0.00 44 1021.6
20190920160148 74 254 0.0 5.0 0.00 0.00 0.00 46 1021.7
20190920154726 73 317 0.0 8.0 0.00 0.00 0.00 48 1021.7
20190920153149 72 214 0.0 4.0 0.00 0.00 0.00 55 1021.8
20190920151559 71 335 0.0 3.0 0.00 0.00 0.00 56 1022.2
20190920150126 70 134 0.0 2.0 0.00 0.00 0.00 57 1022.4
20190920144539 68 325 0.0 4.0 0.00 0.00 0.00 60 1022.7
20190920143041 67 225 0.0 1.0 0.00 0.00 0.00 63 1022.8
20190920141528 65 136 0.0 3.0 0.00 0.00 0.00 68 1023.0
20190920140027 62 207 0.0 2.0 0.00 0.00 0.00 73 1023.1
20190920134521 59 237 0.0 3.0 0.00 0.00 0.00 79 1023.2
20190920133031 55 223 0.0 1.0 0.00 0.00 0.00 95 1023.3
20190920131519 54 237 0.0 1.0 0.00 0.00 0.00 97 1023.5
20190920130008 53 211 0.0 1.0 0.00 0.00 0.00 97 1023.5
20190920124732 51 98 0.0 0.0 0.00 0.00 0.00 97 1023.7
20190920123154 50 98 0.0 0.0 0.00 0.00 0.00 97 1023.7
20190920121704 47 98 0.0 0.0 0.00 0.00 0.00 97 1023.7
20190920120126 43 98 0.0 0.0 0.00 0.00 0.00 97 1023.6
20190920114623 41 98 0.0 0.0 0.00 0.00 0.00 97 1023.5
20190920113152 39 98 0.0 0.0 0.00 0.00 0.00 97 1023.5
20190920111711 38 98 0.0 0.0 0.00 0.00 0.00 96 1023.3
20190920110120 38 98 0.0 0.0 0.00 0.00 0.00 96 1023.2
20190920104621 38 98 0.0 0.0 0.00 0.00 0.00 96 1023.2
20190920103139 38 98 0.0 0.0 0.00 0.00 0.00 96 1023.1
20190920101617 38 98 0.0 0.0 0.00 0.00 0.00 96 1023.2
20190920100150 38 98 0.0 0.0 0.00 0.00 0.00 96 1023.4
20190920094632 39 98 0.0 0.0 0.00 0.00 0.00 96 1023.4
20190920093208 39 98 0.0 0.0 0.00 0.00 0.00 96 1023.2
20190920091610 39 98 0.0 0.0 0.00 0.00 0.00 96 1023.2